Time;durP1;ratioP1;P1;durP2;ratioP2;P2;SDS_P1;SDS_P2;PMS_P1;PMS_P2;Temp;Humidity;BMP_temperature;BMP_pressure;BME280_temperature;BME280_humidity;BME280_pressure;Samples;Min_cycle;Max_cycle;Signal;HPM_P1;HPM_P2
2022/01/06 00:00:14;;;;;;;0.90;0.77;;;;;;;1.26;76.55;97934.34;4488812;31;20176;-76
2022/01/06 00:02:43;;;;;;;1.85;1.12;;;;;;;1.30;75.65;97940.97;4501527;31;20499;-77
2022/01/06 00:05:10;;;;;;;1.83;1.12;;;;;;;1.34;75.33;97945.00;4501375;31;20087;-77
2022/01/06 00:07:37;;;;;;;2.80;1.33;;;;;;;1.35;75.77;97954.41;4501398;31;20164;-77
2022/01/06 00:10:10;;;;;;;2.75;1.42;;;;;;;1.36;75.83;97951.72;4501636;31;20152;-77
2022/01/06 00:12:48;;;;;;;4.97;1.30;;;;;;;1.37;75.37;97953.38;4501431;31;20563;-77
2022/01/06 00:18:23;;;;;;;2.45;1.00;;;;;;;1.24;75.79;97955.94;4487165;31;20445;-77
2022/01/06 00:23:42;;;;;;;3.05;1.45;;;;;;;1.33;75.44;97943.34;4501228;31;20088;-77
2022/01/06 00:26:10;;;;;;;3.37;1.10;;;;;;;1.41;75.27;97944.50;4501503;31;20123;-77
2022/01/06 00:28:37;;;;;;;7.55;1.12;;;;;;;1.35;75.59;97947.50;4501107;31;20084;-76
2022/01/06 00:31:05;;;;;;;1.08;0.70;;;;;;;1.31;76.00;97938.28;4501406;31;20084;-76
2022/01/06 00:33:33;;;;;;;2.10;1.17;;;;;;;1.36;75.51;97932.81;4501108;31;20115;-77
2022/01/06 00:36:00;;;;;;;2.03;0.95;;;;;;;1.37;75.92;97926.75;4501545;31;20511;-77
2022/01/06 00:38:27;;;;;;;7.60;1.45;;;;;;;1.34;75.65;97921.78;4501196;31;20096;-77
2022/01/06 00:40:56;;;;;;;2.03;0.90;;;;;;;1.34;75.85;97908.88;4501324;31;20099;-77
2022/01/06 00:43:23;;;;;;;2.67;0.90;;;;;;;1.34;76.16;97903.72;4500943;31;20096;-76
2022/01/06 00:45:52;;;;;;;2.00;0.70;;;;;;;1.29;76.11;97891.13;4501345;31;20111;-77
2022/01/06 00:48:19;;;;;;;1.42;0.80;;;;;;;1.24;76.11;97881.09;4501164;31;20445;-76
2022/01/06 00:50:46;;;;;;;2.65;0.82;;;;;;;1.31;76.12;97868.63;4501095;31;20108;-77
2022/01/06 00:53:13;;;;;;;2.17;1.10;;;;;;;1.26;76.38;97869.84;4501418;31;20104;-77
2022/01/06 00:55:41;;;;;;;2.00;1.17;;;;;;;1.28;76.54;97862.84;4501031;31;20174;-77
2022/01/06 00:58:08;;;;;;;2.67;0.70;;;;;;;1.29;76.87;97867.06;4501197;31;20126;-76
2022/01/06 01:00:40;;;;;;;1.62;0.65;;;;;;;1.29;76.92;97864.47;4495615;31;20835;-77
2022/01/06 01:03:14;;;;;;;2.12;1.00;;;;;;;1.32;76.79;97851.41;4485196;32;20217;-76
2022/01/06 01:05:42;;;;;;;4.75;0.77;;;;;;;1.33;76.92;97843.56;4485333;31;20163;-77
2022/01/06 01:08:10;;;;;;;2.60;0.90;;;;;;;1.30;77.11;97853.25;4485269;32;20460;-77
2022/01/06 01:10:37;;;;;;;1.25;0.75;;;;;;;1.27;77.55;97854.25;4485305;31;20146;-77
2022/01/06 01:13:10;;;;;;;2.70;1.10;;;;;;;1.22;77.77;97853.75;4485202;32;20119;-77
2022/01/06 01:15:45;;;;;;;2.58;0.80;;;;;;;1.24;77.42;97870.78;4484097;32;20103;-77
2022/01/06 01:18:17;;;;;;;3.58;1.00;;;;;;;1.28;77.28;97880.91;4484312;31;20087;-76
2022/01/06 01:20:48;;;;;;;6.37;1.20;;;;;;;1.23;77.83;97876.88;4492781;31;20100;-77
2022/01/06 01:23:16;;;;;;;3.50;1.17;;;;;;;1.13;77.96;97872.41;4500923;31;20076;-76
2022/01/06 01:25:44;;;;;;;0.80;0.80;;;;;;;1.23;78.17;97869.13;4501271;31;20138;-77
2022/01/06 01:28:11;;;;;;;4.15;1.17;;;;;;;1.24;77.38;97888.00;4500892;31;20096;-77
2022/01/06 01:30:51;;;;;;;1.50;0.77;;;;;;;1.19;78.17;97901.19;4500954;31;20118;-76
2022/01/06 01:33:19;;;;;;;2.05;1.05;;;;;;;1.21;77.98;97893.38;4501128;31;20451;-76
2022/01/06 01:35:46;;;;;;;1.37;0.40;;;;;;;1.16;78.58;97887.69;4500979;31;20114;-76
2022/01/06 01:38:13;;;;;;;2.35;1.30;;;;;;;1.22;78.46;97903.59;4500679;31;20107;-76
2022/01/06 01:40:40;;;;;;;3.30;1.40;;;;;;;1.19;78.68;97893.47;4500775;31;20111;-76
2022/01/06 01:43:08;;;;;;;1.83;0.95;;;;;;;1.16;78.93;97874.78;4500830;31;20095;-76
2022/01/06 01:45:39;;;;;;;1.90;1.17;;;;;;;1.21;78.77;97876.16;4500820;31;20413;-76
2022/01/06 01:48:09;;;;;;;4.22;1.12;;;;;;;1.27;77.91;97876.66;4500635;31;20072;-76
2022/01/06 01:50:36;;;;;;;5.75;0.95;;;;;;;1.26;78.25;97864.69;4500663;31;20490;-77
2022/01/06 01:53:03;;;;;;;1.77;0.85;;;;;;;1.27;77.84;97866.34;4500649;31;20091;-76
2022/01/06 01:55:35;;;;;;;2.28;0.80;;;;;;;1.26;78.04;97859.53;4500672;31;20115;-77
2022/01/06 01:58:03;;;;;;;4.57;1.27;;;;;;;1.30;78.12;97869.53;4500768;31;20122;-77
2022/01/06 02:00:31;;;;;;;1.77;0.82;;;;;;;1.28;78.20;97868.81;4495714;31;20164;-77
2022/01/06 02:02:58;;;;;;;1.58;0.75;;;;;;;1.29;78.33;97867.06;4484734;31;20535;-76
2022/01/06 02:05:28;;;;;;;3.00;1.25;;;;;;;1.31;77.48;97876.34;4484687;32;20164;-76
2022/01/06 02:07:58;;;;;;;1.80;0.77;;;;;;;1.33;77.62;97896.91;4484667;31;20104;-76
2022/01/06 02:10:26;;;;;;;4.68;1.05;;;;;;;1.27;77.96;97905.84;4484676;31;20503;-77
2022/01/06 02:12:56;;;;;;;3.28;1.30;;;;;;;1.27;77.74;97894.72;4484661;31;20092;-76
2022/01/06 02:15:23;;;;;;;1.67;0.98;;;;;;;1.28;77.76;97901.56;4484516;31;20100;-76
2022/01/06 02:17:50;;;;;;;4.43;1.30;;;;;;;1.29;77.56;97908.34;4483301;32;20395;-76
2022/01/06 02:20:20;;;;;;;2.17;1.35;;;;;;;1.27;77.39;97898.13;4489121;31;20155;-76
2022/01/06 02:22:47;;;;;;;9.93;1.33;;;;;;;1.31;77.46;97888.44;4500369;31;20087;-76
2022/01/06 02:25:19;;;;;;;3.90;1.10;;;;;;;1.24;77.78;97883.69;4500227;31;20207;-76
2022/01/06 02:27:49;;;;;;;2.62;0.93;;;;;;;1.28;77.13;97870.59;4498973;31;20461;-76
2022/01/06 02:30:17;;;;;;;0.65;0.62;;;;;;;1.25;77.08;97866.44;4500280;31;20135;-76
2022/01/06 02:32:44;;;;;;;2.37;1.10;;;;;;;1.26;77.11;97849.19;4500380;31;20504;-76
2022/01/06 02:35:17;;;;;;;4.57;1.08;;;;;;;1.20;77.68;97853.03;4500199;31;20202;-76
2022/01/06 02:37:44;;;;;;;2.17;0.93;;;;;;;1.24;77.03;97851.87;4500245;31;20080;-76
2022/01/06 02:40:14;;;;;;;1.95;0.85;;;;;;;1.25;77.54;97858.72;4500085;31;20550;-76
2022/01/06 02:42:43;;;;;;;1.62;0.95;;;;;;;1.23;77.18;97855.41;4500246;31;20100;-76
2022/01/06 02:45:12;;;;;;;5.07;1.00;;;;;;;1.18;77.70;97855.72;4500061;31;20091;-77
2022/01/06 02:47:40;;;;;;;3.47;1.00;;;;;;;1.21;77.80;97858.09;4499892;31;20096;-76
2022/01/06 02:50:08;;;;;;;1.92;1.10;;;;;;;1.21;78.19;97863.25;4500009;31;20111;-76
2022/01/06 02:52:35;;;;;;;2.75;1.08;;;;;;;1.23;78.28;97883.78;4500018;31;20092;-77
2022/01/06 02:55:04;;;;;;;5.12;1.42;;;;;;;1.16;78.28;97896.25;4500105;31;20095;-76
2022/01/06 02:57:31;;;;;;;1.75;0.95;;;;;;;1.09;78.92;97912.22;4499769;31;20088;-76
2022/01/06 02:59:59;;;;;;;2.30;0.80;;;;;;;1.13;79.25;97924.81;4498571;31;20097;-76
2022/01/06 03:02:26;;;;;;;6.43;1.23;;;;;;;1.16;78.52;97929.78;4484311;31;20167;-76
2022/01/06 03:04:53;;;;;;;1.80;0.73;;;;;;;1.19;79.22;97944.25;4484292;31;20104;-76
2022/01/06 03:07:21;;;;;;;4.60;1.20;;;;;;;1.08;79.21;97942.34;4484187;31;20545;-76
2022/01/06 03:09:54;;;;;;;2.75;1.00;;;;;;;1.08;79.53;97952.66;4483610;31;20093;-76
2022/01/06 03:12:28;;;;;;;3.12;1.05;;;;;;;1.07;79.18;97953.59;4484165;31;20112;-76
2022/01/06 03:14:55;;;;;;;6.80;1.33;;;;;;;1.05;79.29;97953.69;4483822;31;20158;-76
2022/01/06 03:17:22;;;;;;;1.58;0.80;;;;;;;1.07;78.97;97953.59;4484068;31;20096;-76
2022/01/06 03:19:49;;;;;;;3.28;0.98;;;;;;;1.11;78.65;97942.16;4485325;31;20119;-76
2022/01/06 03:22:16;;;;;;;1.20;0.50;;;;;;;1.11;78.80;97949.06;4499464;31;20469;-76
2022/01/06 03:24:43;;;;;;;2.40;0.73;;;;;;;1.15;78.47;97945.34;4476492;31;20103;-77
2022/01/06 03:27:11;;;;;;;1.17;0.90;;;;;;;1.07;78.99;97948.44;4499442;31;20096;-76
2022/01/06 03:29:38;;;;;;;3.87;0.77;;;;;;;1.11;78.20;97946.50;4499246;31;20108;-76
2022/01/06 03:32:05;;;;;;;4.20;0.90;;;;;;;1.15;78.03;97947.94;4499399;31;20496;-76
2022/01/06 03:34:33;;;;;;;8.18;1.27;;;;;;;1.13;78.09;97940.28;4499571;31;20091;-76
2022/01/06 03:37:02;;;;;;;4.68;0.90;;;;;;;1.15;78.30;97945.34;4499359;31;20450;-76
2022/01/06 03:39:29;;;;;;;2.58;0.90;;;;;;;1.12;78.02;97938.66;4499313;31;20100;-76
2022/01/06 03:41:57;;;;;;;3.17;0.98;;;;;;;1.11;78.24;97952.47;4500443;31;20100;-76
2022/01/06 03:44:24;;;;;;;1.35;0.80;;;;;;;1.12;78.31;97959.31;4501672;31;20166;-76
2022/01/06 03:46:53;;;;;;;1.98;1.10;;;;;;;1.14;78.26;97966.94;4501472;31;20148;-76
2022/01/06 03:49:21;;;;;;;2.72;1.10;;;;;;;1.10;78.14;97976.59;4501490;31;20100;-76
2022/01/06 03:51:49;;;;;;;2.83;0.80;;;;;;;1.10;78.22;97962.88;4501433;31;20569;-76
2022/01/06 03:54:16;;;;;;;3.62;0.77;;;;;;;1.15;78.17;97973.72;4501626;31;20087;-76
2022/01/06 03:56:45;;;;;;;5.28;1.10;;;;;;;1.07;78.09;97987.13;4501575;31;20135;-76
2022/01/06 03:59:12;;;;;;;1.10;0.55;;;;;;;1.19;78.06;97976.03;4501455;31;20126;-76
2022/01/06 04:01:40;;;;;;;1.23;0.85;;;;;;;1.19;77.71;97981.19;4489036;31;20142;-76
2022/01/06 04:04:07;;;;;;;2.65;0.55;;;;;;;1.12;78.07;97974.78;4485704;31;20192;-76
2022/01/06 04:06:34;;;;;;;3.05;1.10;;;;;;;1.14;77.86;97966.94;4485534;31;20088;-76
2022/01/06 04:09:02;;;;;;;2.90;1.02;;;;;;;1.13;78.04;97966.09;4485657;31;20221;-76
2022/01/06 04:11:30;;;;;;;2.05;0.60;;;;;;;1.16;77.47;97960.72;4485669;31;20101;-76
2022/01/06 04:13:57;;;;;;;2.20;0.70;;;;;;;1.19;76.99;97973.44;4485502;31;20151;-76
2022/01/06 04:16:26;;;;;;;3.72;1.15;;;;;;;1.22;76.82;97968.09;4485605;31;20397;-76
2022/01/06 04:18:54;;;;;;;1.73;0.62;;;;;;;1.25;76.58;97959.31;4485657;32;20505;-76
2022/01/06 04:21:21;;;;;;;6.55;0.90;;;;;;;1.22;77.00;97964.69;4497039;31;20366;-76
2022/01/06 04:23:48;;;;;;;1.67;0.60;;;;;;;1.18;76.50;97964.06;4501318;31;20095;-76
2022/01/06 04:26:16;;;;;;;4.00;0.73;;;;;;;1.12;77.11;97954.12;4501199;31;20084;-76
2022/01/06 04:28:43;;;;;;;3.15;0.77;;;;;;;1.13;77.17;97960.94;4501310;31;20377;-76
2022/01/06 04:31:10;;;;;;;1.40;0.80;;;;;;;1.24;76.62;97965.41;4501299;31;20096;-76
2022/01/06 04:33:37;;;;;;;1.00;0.90;;;;;;;1.20;76.98;97967.38;4501377;31;20119;-76
2022/01/06 04:36:05;;;;;;;0.68;0.55;;;;;;;1.19;77.34;97970.84;4501170;31;20100;-76
2022/01/06 04:38:33;;;;;;;1.55;0.70;;;;;;;1.18;77.57;97958.91;4501265;31;20084;-76
2022/01/06 04:41:01;;;;;;;1.08;0.65;;;;;;;1.19;77.47;97964.88;4501070;31;20148;-76
2022/01/06 04:43:28;;;;;;;3.40;0.90;;;;;;;1.17;77.11;97962.41;4501231;31;20087;-76
2022/01/06 04:45:55;;;;;;;4.90;0.85;;;;;;;1.16;77.97;97976.22;4501064;31;20088;-76
2022/01/06 04:48:23;;;;;;;1.55;0.50;;;;;;;1.16;78.46;97983.94;4501143;31;20104;-76
2022/01/06 04:50:50;;;;;;;1.62;1.15;;;;;;;1.16;77.66;97980.56;4501043;31;20445;-76
2022/01/06 04:53:17;;;;;;;1.70;1.00;;;;;;;1.14;78.62;97993.56;4500228;31;20465;-76
2022/01/06 04:55:44;;;;;;;1.52;0.62;;;;;;;1.12;78.68;97992.84;4501324;31;20130;-76
2022/01/06 04:58:12;;;;;;;2.90;0.98;;;;;;;1.11;78.74;97992.94;4500950;31;20426;-76
2022/01/06 05:00:39;;;;;;;1.80;0.85;;;;;;;1.13;78.84;98007.38;4495347;31;20100;-76
2022/01/06 05:03:06;;;;;;;2.53;1.15;;;;;;;1.15;78.64;98013.28;4485227;31;20088;-76
2022/01/06 05:05:34;;;;;;;2.20;1.33;;;;;;;1.18;78.58;98007.91;4484921;31;20119;-76
2022/01/06 05:08:01;;;;;;;2.25;0.80;;;;;;;1.15;78.99;98025.31;4499043;31;20099;-76
2022/01/06 05:10:28;;;;;;;1.87;0.90;;;;;;;1.15;79.67;98027.91;4500849;31;20161;-76
2022/01/06 05:12:55;;;;;;;2.87;0.90;;;;;;;1.14;79.88;98018.53;4501024;31;20567;-76
2022/01/06 05:15:22;;;;;;;3.30;0.93;;;;;;;1.11;80.25;98016.97;4500777;31;20445;-76
2022/01/06 05:17:50;;;;;;;4.70;0.90;;;;;;;1.06;81.37;98019.00;4500573;31;20096;-76
2022/01/06 05:20:20;;;;;;;1.42;0.88;;;;;;;1.04;81.27;98016.50;4500781;31;20087;-76
2022/01/06 05:22:47;;;;;;;1.95;0.98;;;;;;;0.99;82.16;98028.88;4500824;31;20092;-76
2022/01/06 05:25:15;;;;;;;3.92;0.80;;;;;;;1.00;81.54;98020.22;4500937;31;20095;-76
2022/01/06 05:27:42;;;;;;;5.85;1.12;;;;;;;0.97;82.48;98029.88;4500721;31;20096;-76
2022/01/06 05:30:09;;;;;;;8.85;1.10;;;;;;;0.88;83.19;98023.56;4500793;31;20093;-76
2022/01/06 05:32:37;;;;;;;3.67;0.93;;;;;;;0.81;83.58;98015.34;4500160;31;20497;-77
2022/01/06 05:35:04;;;;;;;2.50;0.98;;;;;;;0.83;83.50;98023.84;4500470;31;20155;-76
2022/01/06 05:37:31;;;;;;;3.35;1.80;;;;;;;0.87;83.52;98034.78;4500440;31;20112;-76
2022/01/06 05:39:59;;;;;;;5.72;1.70;;;;;;;0.84;84.28;98037.56;4501070;31;20575;-76
2022/01/06 05:42:26;;;;;;;3.72;1.15;;;;;;;0.83;84.17;98035.88;4500590;31;20096;-76
2022/01/06 05:44:53;;;;;;;3.08;1.50;;;;;;;0.79;84.48;98043.00;4500741;31;20437;-76
2022/01/06 05:47:20;;;;;;;1.83;0.82;;;;;;;0.79;84.40;98019.78;4500579;31;20217;-76
2022/01/06 05:49:47;;;;;;;6.15;1.30;;;;;;;0.79;85.04;98043.00;4500705;31;20118;-76
2022/01/06 05:52:15;;;;;;;6.85;2.12;;;;;;;0.80;85.05;98060.13;4500624;31;20862;-76
2022/01/06 05:54:42;;;;;;;3.25;1.60;;;;;;;0.80;85.07;98041.22;4500803;31;20091;-76
2022/01/06 05:57:10;;;;;;;4.75;1.65;;;;;;;0.79;85.27;98030.09;4499784;31;20115;-76
2022/01/06 05:59:37;;;;;;;4.32;1.45;;;;;;;0.78;85.86;98053.41;4500515;31;20118;-76
2022/01/06 06:02:05;;;;;;;5.22;2.12;;;;;;;0.73;85.80;98024.47;4497450;31;20099;-76
2022/01/06 06:04:33;;;;;;;3.75;1.67;;;;;;;0.71;85.77;98024.56;4499182;31;20491;-76
2022/01/06 06:07:00;;;;;;;7.15;1.40;;;;;;;0.71;85.99;98037.47;4499847;31;20441;-76
2022/01/06 06:09:27;;;;;;;5.60;1.25;;;;;;;0.71;86.22;98032.31;4499601;31;20118;-76
2022/01/06 06:11:55;;;;;;;2.90;1.20;;;;;;;0.75;85.95;98038.94;4499766;31;20100;-76
2022/01/06 06:14:22;;;;;;;2.72;1.73;;;;;;;0.74;86.00;98036.47;4499338;31;20463;-76
2022/01/06 06:16:49;;;;;;;3.40;1.30;;;;;;;0.76;86.06;98058.66;4499155;31;20142;-76
2022/01/06 06:19:17;;;;;;;7.90;0.90;;;;;;;0.77;86.06;98060.28;4500403;31;20100;-76
2022/01/06 06:21:44;;;;;;;1.70;0.93;;;;;;;0.76;86.44;98060.38;4499941;31;20096;-76
2022/01/06 06:24:11;;;;;;;4.62;1.12;;;;;;;0.75;86.43;98064.72;4499926;31;20126;-76
2022/01/06 06:26:38;;;;;;;1.58;1.00;;;;;;;0.73;86.42;98069.16;4499915;31;20100;-76
2022/01/06 06:29:05;;;;;;;2.25;1.08;;;;;;;0.78;86.46;98077.41;4499929;31;20110;-76
2022/01/06 06:31:32;;;;;;;3.03;1.37;;;;;;;0.78;86.65;98077.41;4500199;31;20084;-76
2022/01/06 06:34:00;;;;;;;3.17;1.50;;;;;;;0.76;86.53;98089.59;4500484;31;20095;-75
2022/01/06 06:36:27;;;;;;;2.80;1.00;;;;;;;0.78;87.02;98094.66;4500219;31;20088;-75
2022/01/06 06:38:54;;;;;;;4.20;1.25;;;;;;;0.75;87.36;98113.69;4500202;31;20088;-77
2022/01/06 06:41:21;;;;;;;5.07;1.52;;;;;;;0.72;87.14;98108.72;4498203;31;20145;-77
2022/01/06 06:43:49;;;;;;;3.75;1.50;;;;;;;0.70;87.77;98108.00;4498827;31;20147;-77
2022/01/06 06:46:16;;;;;;;6.05;1.33;;;;;;;0.70;87.80;98111.41;4497904;31;20123;-76
2022/01/06 06:48:43;;;;;;;6.15;1.60;;;;;;;0.69;88.03;98103.75;4499728;31;20114;-76
2022/01/06 06:51:11;;;;;;;1.62;0.98;;;;;;;0.76;86.58;98117.09;4500177;31;20079;-75
2022/01/06 06:53:38;;;;;;;5.03;2.03;;;;;;;0.77;87.13;98106.69;4499582;31;20842;-76
2022/01/06 06:56:05;;;;;;;5.18;2.50;;;;;;;0.77;86.94;98118.75;4499991;31;20092;-75
2022/01/06 06:58:32;;;;;;;2.15;1.08;;;;;;;0.75;87.50;98120.63;4480388;31;20097;-76
2022/01/06 07:01:00;;;;;;;1.37;0.95;;;;;;;0.76;87.45;98122.25;4491913;31;20518;-76
2022/01/06 07:03:50;;;;;;;2.55;1.50;;;;;;;0.79;87.62;98133.22;4464934;32;20088;-75
2022/01/06 07:06:37;;;;;;;4.40;1.35;;;;;;;0.81;87.41;98131.38;4428954;32;20209;-76
2022/01/06 07:09:25;;;;;;;1.05;0.88;;;;;;;0.79;87.55;98138.38;4376171;32;20577;-76
2022/01/06 07:12:15;;;;;;;2.67;1.52;;;;;;;0.81;87.19;98133.97;4301968;33;20104;-76
2022/01/06 07:15:00;;;;;;;3.30;1.33;;;;;;;0.83;87.54;98150.19;4303927;33;20123;-75
2022/01/06 07:17:41;;;;;;;;;;;;;;;0.87;87.27;98151.63;4312415;33;20116;-75
2022/01/06 07:20:24;;;;;;;5.05;1.52;;;;;;;0.92;87.10;98158.28;4307580;33;20043;-75
2022/01/06 07:23:05;;;;;;;3.30;1.77;;;;;;;0.93;87.06;98162.53;4316583;33;20122;-75
2022/01/06 07:25:47;;;;;;;1.45;1.10;;;;;;;0.96;86.99;98172.66;4316208;33;20130;-76
2022/01/06 07:28:28;;;;;;;2.67;1.40;;;;;;;0.98;87.25;98181.94;4304787;33;20164;-78
2022/01/06 07:31:10;;;;;;;1.20;0.77;;;;;;;1.05;86.97;98182.44;4306955;33;20138;-76
2022/01/06 07:33:52;;;;;;;4.00;0.90;;;;;;;1.05;86.41;98193.56;4307853;33;20134;-76
2022/01/06 07:36:34;;;;;;;4.85;1.65;;;;;;;1.09;86.66;98186.50;4302202;33;20164;-75
2022/01/06 07:39:15;;;;;;;2.40;1.08;;;;;;;1.15;86.59;98191.28;4311840;33;20443;-76
2022/01/06 07:41:57;;;;;;;9.35;1.62;;;;;;;1.20;86.44;98194.41;4357391;32;20145;-75
2022/01/06 07:44:27;;;;;;;3.72;1.40;;;;;;;1.24;86.00;98195.88;4371410;32;20633;-75
2022/01/06 07:46:54;;;;;;;1.50;1.08;;;;;;;1.32;85.61;98205.72;4404247;32;20957;-75
2022/01/06 07:49:22;;;;;;;1.35;0.90;;;;;;;1.35;85.53;98215.88;4458333;31;20100;-75
2022/01/06 07:51:49;;;;;;;2.37;1.30;;;;;;;1.35;85.28;98215.88;4501386;31;20096;-78
2022/01/06 07:54:16;;;;;;;1.33;0.93;;;;;;;1.37;85.42;98232.06;4500001;31;20104;-75
2022/01/06 07:56:44;;;;;;;2.72;1.27;;;;;;;1.45;85.27;98228.22;4501670;31;20449;-78
2022/01/06 07:59:11;;;;;;;5.10;1.70;;;;;;;1.48;84.95;98221.09;4501078;31;20114;-78
2022/01/06 08:01:38;;;;;;;1.37;1.05;;;;;;;1.53;84.87;98226.81;4501161;31;20479;-78
2022/01/06 08:04:06;;;;;;;3.50;1.48;;;;;;;1.55;84.90;98231.91;4496209;31;20099;-77
2022/01/06 08:06:33;;;;;;;4.93;1.20;;;;;;;1.50;84.49;98244.25;4500828;31;20084;-77
2022/01/06 08:09:01;;;;;;;4.93;0.77;;;;;;;1.61;84.57;98241.03;4478513;31;20099;-79
2022/01/06 08:11:28;;;;;;;4.18;1.05;;;;;;;1.65;83.97;98251.06;4500079;31;20235;-79
2022/01/06 08:13:55;;;;;;;1.17;0.73;;;;;;;1.64;84.25;98246.81;4498777;31;20110;-79
2022/01/06 08:16:22;;;;;;;5.97;1.40;;;;;;;1.72;83.33;98242.00;4497926;31;20160;-78
2022/01/06 08:18:50;;;;;;;3.92;1.40;;;;;;;1.75;83.29;98257.31;4492603;31;20108;-78
2022/01/06 08:21:17;;;;;;;3.55;0.95;;;;;;;1.70;83.89;98248.22;4495470;31;20096;-76
2022/01/06 08:23:45;;;;;;;3.12;1.42;;;;;;;1.80;83.09;98254.44;4491616;31;20426;-75
2022/01/06 08:26:15;;;;;;;3.58;1.23;;;;;;;1.85;82.88;98251.59;4486949;31;20080;-75
2022/01/06 08:28:46;;;;;;;5.10;1.25;;;;;;;1.91;82.78;98264.97;4489912;31;20088;-75
2022/01/06 08:31:16;;;;;;;1.67;0.80;;;;;;;1.95;82.49;98266.44;4499700;31;20104;-77
2022/01/06 08:33:47;;;;;;;2.12;1.05;;;;;;;1.93;82.60;98276.00;4501144;31;20461;-76
2022/01/06 08:36:14;;;;;;;5.68;1.35;;;;;;;2.08;82.17;98276.00;4500667;31;20385;-75
2022/01/06 08:38:42;;;;;;;1.70;0.77;;;;;;;2.17;82.70;98287.53;4500763;31;20099;-75
2022/01/06 08:41:09;;;;;;;9.88;1.25;;;;;;;2.15;81.38;98285.03;4499808;31;20119;-77
2022/01/06 08:43:37;;;;;;;3.08;1.60;;;;;;;2.21;81.91;98287.22;4500845;31;20137;-76
2022/01/06 08:46:04;;;;;;;1.85;1.10;;;;;;;2.25;81.46;98291.25;4499902;31;20147;-78
2022/01/06 08:48:32;;;;;;;4.50;1.33;;;;;;;2.36;81.06;98298.31;4500839;31;20138;-76
2022/01/06 08:50:59;;;;;;;2.97;1.00;;;;;;;2.26;81.26;98302.44;4500744;31;20087;-77
2022/01/06 08:53:26;;;;;;;2.15;1.20;;;;;;;2.29;82.11;98299.66;4499868;31;20091;-77
2022/01/06 08:55:53;;;;;;;3.15;0.90;;;;;;;2.27;81.03;98301.50;4499312;31;20079;-75
2022/01/06 08:58:21;;;;;;;1.83;1.10;;;;;;;2.24;80.80;98305.12;4499873;31;20156;-76
2022/01/06 09:00:48;;;;;;;3.78;1.25;;;;;;;2.28;81.26;98298.81;4497597;31;20095;-77
2022/01/06 09:03:15;;;;;;;5.65;1.42;;;;;;;2.34;81.07;98304.53;4498184;31;20127;-77
2022/01/06 09:05:43;;;;;;;5.37;1.33;;;;;;;2.39;80.46;98308.50;4498270;31;20133;-77
2022/01/06 09:08:10;;;;;;;4.45;1.35;;;;;;;2.37;80.62;98317.28;4499087;31;20465;-77
2022/01/06 09:10:38;;;;;;;0.80;0.80;;;;;;;2.43;80.36;98314.31;4498593;31;20545;-77
2022/01/06 09:13:25;;;;;;;5.18;1.55;;;;;;;2.41;80.65;98311.00;4500404;31;20088;-77
2022/01/06 09:15:53;;;;;;;5.78;1.10;;;;;;;2.43;80.50;98319.47;4500155;31;20611;-75
2022/01/06 09:18:20;;;;;;;1.17;0.88;;;;;;;2.46;79.96;98320.09;4500628;31;20613;-75
2022/01/06 09:20:47;;;;;;;4.00;1.10;;;;;;;2.49;80.60;98319.09;4500194;31;20095;-75
2022/01/06 09:23:15;;;;;;;3.50;1.10;;;;;;;2.66;79.95;98324.03;4500650;31;20096;-75
2022/01/06 09:25:43;;;;;;;3.95;1.30;;;;;;;2.72;79.44;98319.38;4498327;31;20131;-75
2022/01/06 09:28:10;;;;;;;2.25;1.00;;;;;;;2.73;79.50;98321.03;4496822;31;20200;-75
2022/01/06 09:30:38;;;;;;;3.60;1.17;;;;;;;2.75;79.30;98329.50;4497951;31;20492;-74
2022/01/06 09:33:06;;;;;;;2.08;1.30;;;;;;;2.74;78.64;98328.69;4500451;31;20172;-74
2022/01/06 09:35:33;;;;;;;10.10;1.77;;;;;;;2.77;78.72;98332.81;4497666;31;20096;-75
2022/01/06 09:38:00;;;;;;;8.38;1.55;;;;;;;2.88;77.60;98329.53;4498065;31;20108;-75
2022/01/06 09:40:28;;;;;;;2.05;1.35;;;;;;;2.91;78.34;98343.12;4500559;31;20160;-75
2022/01/06 09:42:55;;;;;;;2.30;1.25;;;;;;;2.88;78.46;98340.75;4500644;31;20126;-75
2022/01/06 09:45:27;;;;;;;3.47;1.67;;;;;;;2.88;77.69;98334.72;4500041;31;20088;-76
2022/01/06 09:47:55;;;;;;;3.72;1.48;;;;;;;2.94;77.91;98340.34;4497478;31;20120;-75
2022/01/06 09:50:22;;;;;;;1.92;1.10;;;;;;;2.94;78.63;98348.09;4500048;31;20100;-76
2022/01/06 09:52:50;;;;;;;3.35;1.30;;;;;;;3.07;77.98;98342.94;4497597;31;20108;-75
2022/01/06 09:55:19;;;;;;;3.83;1.58;;;;;;;3.18;77.50;98334.50;4496581;31;20104;-75
2022/01/06 09:58:05;;;;;;;2.33;1.25;;;;;;;3.14;76.96;98336.44;4496150;31;20144;-75
2022/01/06 10:00:34;;;;;;;5.65;1.30;;;;;;;3.20;78.08;98338.63;4493201;31;20110;-76
2022/01/06 10:03:03;;;;;;;3.20;1.23;;;;;;;3.23;77.23;98342.78;4495021;31;20148;-75
2022/01/06 10:06:30;;;;;;;5.75;1.45;;;;;;;3.33;78.01;98340.37;4497130;31;20156;-75
2022/01/06 10:09:04;;;;;;;6.10;1.05;;;;;;;3.49;76.72;98355.75;4479413;31;20160;-75
2022/01/06 10:11:34;;;;;;;6.40;1.20;;;;;;;3.49;76.75;98350.56;4491341;31;20129;-76
2022/01/06 10:14:11;;;;;;;5.22;1.73;;;;;;;3.71;77.10;98355.16;4492688;31;20095;-74
2022/01/06 10:16:46;;;;;;;1.92;1.20;;;;;;;3.78;76.17;98348.59;4484308;31;20143;-74
2022/01/06 10:19:15;;;;;;;4.15;1.40;;;;;;;3.91;75.48;98358.97;4494232;31;20123;-76
2022/01/06 10:21:44;;;;;;;3.37;1.25;;;;;;;3.92;75.45;98358.00;4497644;31;20079;-76
2022/01/06 10:24:14;;;;;;;5.35;1.33;;;;;;;3.94;74.45;98353.56;4497965;31;20117;-76
2022/01/06 10:27:06;;;;;;;4.47;1.30;;;;;;;3.81;75.93;98360.50;4497426;31;20445;-76
2022/01/06 10:29:36;;;;;;;1.87;1.08;;;;;;;3.75;74.90;98372.13;4496216;31;20438;-76
2022/01/06 10:32:11;;;;;;;3.33;1.55;;;;;;;3.64;74.23;98379.78;4498646;31;20091;-76
2022/01/06 10:34:52;;;;;;;1.52;1.10;;;;;;;3.61;75.37;98372.22;4497716;31;20129;-76
2022/01/06 10:37:24;;;;;;;2.40;1.25;;;;;;;3.55;74.73;98378.66;4497609;31;20113;-76
2022/01/06 10:39:54;;;;;;;5.87;1.27;;;;;;;3.62;75.45;98381.66;4495850;31;20104;-76
2022/01/06 10:42:23;;;;;;;3.15;1.48;;;;;;;3.79;74.90;98377.94;4499146;31;20138;-77
2022/01/06 10:44:54;;;;;;;2.70;1.20;;;;;;;3.81;73.90;98397.59;4498609;31;20091;-76
2022/01/06 10:47:41;;;;;;;2.42;1.30;;;;;;;3.91;74.59;98395.25;4495893;31;20083;-75
2022/01/06 10:50:12;;;;;;;3.00;1.42;;;;;;;4.02;74.32;98386.72;4497437;31;20112;-77
2022/01/06 10:52:42;;;;;;;6.53;1.45;;;;;;;4.10;74.63;98381.84;4501375;31;20091;-75
2022/01/06 10:55:17;;;;;;;3.55;1.25;;;;;;;4.15;74.22;98378.91;4500251;31;20122;-77
2022/01/06 10:57:57;;;;;;;2.50;1.30;;;;;;;4.21;73.62;98381.09;4501256;31;20080;-76
2022/01/06 11:00:46;;;;;;;1.37;0.93;;;;;;;4.20;73.00;98379.44;4501591;31;20099;-74
2022/01/06 11:03:19;;;;;;;3.53;1.37;;;;;;;4.17;72.49;98392.63;4501707;31;20084;-73
2022/01/06 11:05:53;;;;;;;3.80;1.60;;;;;;;4.19;73.89;98393.34;4500330;31;20208;-74
2022/01/06 11:08:32;;;;;;;1.42;1.10;;;;;;;4.14;73.45;98382.47;4501988;31;20102;-75
2022/01/06 11:13:43;;;;;;;1.77;1.05;;;;;;;4.04;74.61;98393.47;4499989;31;20100;-76
2022/01/06 11:16:13;;;;;;;4.43;1.25;;;;;;;4.11;74.05;98395.66;4499788;31;20104;-74
2022/01/06 11:18:53;;;;;;;2.10;1.00;;;;;;;4.21;73.72;98400.09;4500149;31;20478;-75
2022/01/06 11:21:42;;;;;;;4.10;1.25;;;;;;;4.23;73.50;98403.38;4501919;31;20273;-76
2022/01/06 11:24:14;;;;;;;4.32;1.52;;;;;;;4.09;73.86;98413.91;4500161;31;20104;-75
2022/01/06 11:26:43;;;;;;;3.87;1.40;;;;;;;3.99;73.72;98400.72;4500231;31;20110;-75
2022/01/06 11:29:12;;;;;;;12.27;1.30;;;;;;;3.78;75.20;98413.38;4500792;31;20118;-71
2022/01/06 11:31:41;;;;;;;5.20;1.23;;;;;;;3.84;75.59;98409.53;4501144;31;20088;-71
2022/01/06 11:34:17;;;;;;;3.72;1.23;;;;;;;3.85;74.87;98418.97;4500266;31;20104;-71
2022/01/06 11:36:50;;;;;;;1.90;1.52;;;;;;;3.93;74.90;98414.09;4500461;31;20118;-71
2022/01/06 11:39:24;;;;;;;2.25;1.15;;;;;;;3.83;75.34;98426.84;4500165;31;20248;-71
2022/01/06 11:41:57;;;;;;;2.62;1.12;;;;;;;3.86;74.75;98421.47;4500030;31;20092;-71
2022/01/06 11:44:26;;;;;;;2.22;1.52;;;;;;;3.85;74.53;98429.34;4499967;31;20127;-70
2022/01/06 11:46:56;;;;;;;5.60;1.60;;;;;;;3.86;74.60;98415.44;4496205;31;20130;-71
2022/01/06 11:49:39;;;;;;;6.03;1.87;;;;;;;3.92;74.23;98415.03;4497996;31;20538;-71
2022/01/06 11:52:16;;;;;;;1.40;0.93;;;;;;;3.97;74.60;98418.16;4496055;31;20129;-71
2022/01/06 11:54:54;;;;;;;2.78;1.10;;;;;;;3.83;72.27;98416.50;4496887;31;20118;-71
2022/01/06 11:57:37;;;;;;;4.03;1.15;;;;;;;3.87;72.11;98417.09;4497841;31;20147;-71
2022/01/06 12:00:20;;;;;;;1.50;0.75;;;;;;;3.90;71.89;98427.25;4500273;31;20587;-71
2022/01/06 12:03:00;;;;;;;4.68;1.77;;;;;;;3.82;72.05;98414.81;4495681;31;20092;-72